• NC Software is proud to announce the release of APDL - Airline Pilot Logbook version 10.0. Click here to view APDL on the Apple App store and install now.
  • Logbook Pro for Apple iOS version 8.1 is now available on the App Store. Major update including signature endorsements and dark/light theme support. Click here to install now.

Thunder Snow! Grounded in KCID this morning

BizPilot

Well-known member
Joined
Nov 9, 2004
Posts
132
Total Time
3800
Fun, Fun.

KCID 161352Z 04016G20KT 1/2SM +TSSN BR BKN013 OVC028CB M05/M06 A2983 RMK AO2 TSB1254E46B51 SLP112 TS OHD MOV E OCNL LTGICCG P0009 T10501061

KCID 161153Z 161212 07015G23KT 4SM -FZRA BR OVC009 TEMPO 1215 1SM TS FZRASNPL BR OVC005CB FM1500 04015G25KT 3/4SM -SN BR OVC006 FM1900 35020G30KT 3SM -SN BLSN BR SCT006 OVC012 FM0000 32025G35KT 6SM -SN BLSN BR OVC020 FM0500 31018G28KT P6SM OVC025
 
Top